createdAt,value
2017-08-18T00:00:10.545Z,101312.95
2017-08-18T00:02:38.985Z,101300.02
2017-08-18T00:05:07.436Z,101293.17
2017-08-18T00:07:35.901Z,101300.58
2017-08-18T00:10:04.387Z,101305.43
2017-08-18T00:12:32.867Z,101310.02
2017-08-18T00:15:01.335Z,101308.70
2017-08-18T00:17:29.819Z,101312.64
2017-08-18T00:19:58.276Z,101305.95
2017-08-18T00:22:27.522Z,101304.55
2017-08-18T00:24:55.981Z,101306.09
2017-08-18T00:27:24.421Z,101298.72
2017-08-18T00:29:52.938Z,101292.05
2017-08-18T00:32:21.373Z,101290.86
2017-08-18T00:34:49.799Z,101293.68
2017-08-18T00:37:18.292Z,101292.41
2017-08-18T00:39:46.782Z,101293.55
2017-08-18T00:42:15.255Z,101291.52
2017-08-18T00:44:43.684Z,101284.77
2017-08-18T00:47:12.131Z,101276.66
2017-08-18T00:49:40.562Z,101283.50
2017-08-18T00:52:09.797Z,101292.00
2017-08-18T00:54:38.285Z,101290.63
2017-08-18T00:57:06.758Z,101282.97
2017-08-18T00:59:35.254Z,101290.45
2017-08-18T01:02:03.723Z,101289.38
2017-08-18T01:04:32.209Z,101290.98
2017-08-18T01:07:00.703Z,101299.29
2017-08-18T01:09:29.142Z,101294.94
2017-08-18T01:11:58.468Z,101300.03
2017-08-18T01:14:26.945Z,101297.02
2017-08-18T01:16:55.441Z,101293.71
2017-08-18T01:19:23.926Z,101297.77
2017-08-18T01:21:52.358Z,101302.30
2017-08-18T01:24:21.606Z,101300.54
2017-08-18T01:26:50.037Z,101304.63
2017-08-18T01:29:18.559Z,101309.16
2017-08-18T01:31:47.053Z,101308.34
2017-08-18T01:34:15.539Z,101306.27
2017-08-18T01:36:43.967Z,101305.23
2017-08-18T01:39:13.198Z,101305.55
2017-08-18T01:41:41.684Z,101301.19
2017-08-18T01:44:10.178Z,101305.48
2017-08-18T01:46:38.647Z,101300.52
2017-08-18T01:49:07.118Z,101299.67
2017-08-18T01:51:35.621Z,101301.41
2017-08-18T01:54:04.089Z,101305.66
2017-08-18T01:56:32.575Z,101296.14
2017-08-18T01:59:01.055Z,101294.61
2017-08-18T02:01:29.493Z,101295.46
2017-08-18T02:03:57.953Z,101294.77
2017-08-18T02:06:26.379Z,101299.64
2017-08-18T02:08:55.699Z,101297.02
2017-08-18T02:11:24.136Z,101292.21
2017-08-18T02:13:52.583Z,101292.66
2017-08-18T02:16:21.043Z,101295.70
2017-08-18T02:18:49.526Z,101292.83
2017-08-18T02:21:18.007Z,101288.48
2017-08-18T02:23:46.604Z,101288.19
2017-08-18T02:26:15.076Z,101286.20
2017-08-18T02:28:43.503Z,101280.14
2017-08-18T02:31:12.045Z,101278.05
2017-08-18T02:33:40.529Z,101275.20
2017-08-18T02:36:08.998Z,101264.95
2017-08-18T02:38:37.488Z,101264.16
2017-08-18T02:41:05.943Z,101271.42
2017-08-18T02:43:35.163Z,101270.85
2017-08-18T02:46:03.625Z,101273.72
2017-08-18T02:48:32.818Z,101276.12
2017-08-18T02:51:02.165Z,101273.73
2017-08-18T02:53:30.603Z,101276.50
2017-08-18T02:55:59.927Z,101271.80
2017-08-18T02:58:28.351Z,101279.67
2017-08-18T03:00:56.904Z,101283.81
2017-08-18T03:03:25.381Z,101287.28
2017-08-18T03:05:53.856Z,101294.52
2017-08-18T03:08:22.338Z,101294.52
2017-08-18T03:10:50.831Z,101299.17
2017-08-18T03:13:19.292Z,101301.94
2017-08-18T03:15:47.783Z,101298.56
2017-08-18T03:18:16.284Z,101308.99
2017-08-18T03:20:44.711Z,101305.65
2017-08-18T03:23:13.943Z,101304.09
2017-08-18T03:25:42.367Z,101312.63
2017-08-18T03:28:10.830Z,101314.38
2017-08-18T03:30:39.297Z,101309.89
2017-08-18T03:33:07.764Z,101313.03
2017-08-18T03:35:36.200Z,101314.19
2017-08-18T03:38:04.647Z,101313.58
2017-08-18T03:40:33.077Z,101314.06
2017-08-18T03:43:02.306Z,101310.53
2017-08-18T03:45:30.807Z,101312.66
2017-08-18T03:47:59.269Z,101315.80
2017-08-18T03:50:27.699Z,101306.94
2017-08-18T03:52:56.238Z,101310.05
2017-08-18T03:55:24.719Z,101305.53
2017-08-18T03:57:53.180Z,101308.06
2017-08-18T04:00:21.617Z,101311.18
2017-08-18T04:02:50.073Z,101309.67
2017-08-18T04:05:18.504Z,101310.09
2017-08-18T04:07:46.969Z,101315.55
2017-08-18T04:10:15.408Z,101312.53
2017-08-18T04:12:43.901Z,101314.50
2017-08-18T04:15:12.371Z,101315.78
2017-08-18T04:17:40.824Z,101313.13
2017-08-18T04:20:10.056Z,101324.52
2017-08-18T04:22:38.540Z,101322.39
2017-08-18T04:25:07.002Z,101322.39
2017-08-18T04:27:35.496Z,101320.73
2017-08-18T04:30:03.979Z,101327.55
2017-08-18T04:32:32.463Z,101324.11
2017-08-18T04:35:00.954Z,101319.53
2017-08-18T04:37:29.400Z,101329.73
2017-08-18T04:39:58.723Z,101330.04
2017-08-18T04:42:27.216Z,101330.44
2017-08-18T04:44:55.673Z,101332.64
2017-08-18T04:47:24.107Z,101328.84
2017-08-18T04:49:52.568Z,101323.75
2017-08-18T04:52:20.999Z,101330.13
2017-08-18T04:54:50.215Z,101330.89
2017-08-18T04:57:18.652Z,101333.45
2017-08-18T04:59:47.211Z,101324.22
2017-08-18T05:02:15.690Z,101330.67
2017-08-18T05:04:44.159Z,101322.92
2017-08-18T05:07:12.651Z,101321.55
2017-08-18T05:09:41.126Z,101316.52
2017-08-18T05:12:09.618Z,101307.97
2017-08-18T05:14:38.097Z,101310.34
2017-08-18T05:17:06.541Z,101309.09
2017-08-18T05:19:35.765Z,101308.45
2017-08-18T05:22:04.256Z,101317.58
2017-08-18T05:24:32.707Z,101309.00
2017-08-18T05:27:01.911Z,101309.53
2017-08-18T05:29:30.359Z,101310.58
2017-08-18T05:31:58.787Z,101318.03
2017-08-18T05:34:27.285Z,101320.06
2017-08-18T05:36:55.728Z,101311.69
2017-08-18T05:39:25.060Z,101308.55
2017-08-18T05:41:53.501Z,101306.31
2017-08-18T05:44:22.745Z,101305.52
2017-08-18T05:46:51.215Z,101301.61
2017-08-18T05:49:19.652Z,101289.66
2017-08-18T05:51:48.189Z,101290.92
2017-08-18T05:54:16.632Z,101297.72
2017-08-18T05:56:45.860Z,101294.39
2017-08-18T05:59:14.352Z,101309.03
2017-08-18T06:01:42.837Z,101301.80
2017-08-18T06:04:11.271Z,101306.53
2017-08-18T06:06:40.508Z,101302.48
2017-08-18T06:09:08.987Z,101301.70
2017-08-18T06:11:37.460Z,101295.21
2017-08-18T06:14:05.960Z,101304.03
2017-08-18T06:16:34.445Z,101301.34
2017-08-18T06:19:02.927Z,101296.13
2017-08-18T06:21:31.399Z,101282.71
2017-08-18T06:23:59.841Z,101292.13
2017-08-18T06:26:29.188Z,101283.62
2017-08-18T06:28:57.664Z,101288.02
2017-08-18T06:31:26.131Z,101285.81
2017-08-18T06:33:54.627Z,101291.42
2017-08-18T06:36:23.212Z,101300.13
2017-08-18T06:38:51.648Z,101312.33
2017-08-18T06:41:20.170Z,101308.55
2017-08-18T06:43:48.692Z,101312.97
2017-08-18T06:46:17.128Z,101301.96
2017-08-18T06:48:45.619Z,101304.91
2017-08-18T06:51:14.056Z,101306.74
2017-08-18T06:53:42.517Z,101304.21
2017-08-18T06:56:10.973Z,101297.29
2017-08-18T06:58:39.457Z,101305.38
2017-08-18T07:01:07.938Z,101318.09
2017-08-18T07:03:36.401Z,101317.06
2017-08-18T07:06:04.894Z,101308.97
2017-08-18T07:08:33.371Z,101309.77
2017-08-18T07:11:01.864Z,101309.27
2017-08-18T07:13:30.345Z,101306.00
2017-08-18T07:15:58.818Z,101297.40
2017-08-18T07:18:27.299Z,101295.33
2017-08-18T07:20:55.795Z,101293.64
2017-08-18T07:23:24.256Z,101299.80
2017-08-18T07:25:52.744Z,101294.85
2017-08-18T07:28:21.244Z,101294.05
2017-08-18T07:30:49.701Z,101295.31
2017-08-18T07:33:18.191Z,101292.52
2017-08-18T07:35:46.661Z,101298.20
2017-08-18T07:38:15.105Z,101296.28
2017-08-18T07:40:43.569Z,101293.70
2017-08-18T07:43:12.025Z,101294.20
2017-08-18T07:45:40.510Z,101294.63
2017-08-18T07:48:08.950Z,101301.75
2017-08-18T07:50:38.280Z,101300.14
2017-08-18T07:53:06.712Z,101296.83
2017-08-18T07:55:35.176Z,101300.91
2017-08-18T07:58:03.617Z,101303.22
2017-08-18T08:00:32.117Z,101302.70
2017-08-18T08:03:00.551Z,101307.42
2017-08-18T08:05:29.767Z,101300.28
2017-08-18T08:07:58.276Z,101303.86
2017-08-18T08:10:26.749Z,101297.64
2017-08-18T08:12:55.235Z,101303.80
2017-08-18T08:15:23.715Z,101304.80
2017-08-18T08:17:52.206Z,101305.34
2017-08-18T08:20:20.679Z,101311.63
2017-08-18T08:22:49.160Z,101304.93
2017-08-18T08:25:17.639Z,101302.70
2017-08-18T08:27:46.124Z,101298.34
2017-08-18T08:30:14.564Z,101304.02
2017-08-18T08:32:43.084Z,101293.91
2017-08-18T08:35:11.525Z,101295.31
2017-08-18T08:37:40.270Z,101288.79
2017-08-18T08:40:08.749Z,101294.19
2017-08-18T08:42:37.230Z,101287.53
2017-08-18T08:45:05.713Z,101292.44
2017-08-18T08:47:34.194Z,101289.67
2017-08-18T08:50:02.637Z,101282.08
2017-08-18T08:52:31.879Z,101281.73
2017-08-18T08:55:00.358Z,101270.84
2017-08-18T08:57:28.807Z,101269.15
2017-08-18T08:59:57.249Z,101269.02
2017-08-18T09:02:25.717Z,101262.66
2017-08-18T09:04:54.152Z,101263.78
2017-08-18T09:07:22.620Z,101267.06
2017-08-18T09:09:51.127Z,101273.63
2017-08-18T09:12:19.833Z,101258.39
2017-08-18T09:14:48.299Z,101259.02
2017-08-18T09:17:16.751Z,101261.16
2017-08-18T09:19:45.189Z,101250.93
2017-08-18T09:22:13.655Z,101262.10
2017-08-18T09:24:42.127Z,101263.57
2017-08-18T09:27:10.616Z,101258.05
2017-08-18T09:29:39.073Z,101256.31
2017-08-18T09:32:07.566Z,101253.21
2017-08-18T09:34:36.051Z,101258.81
2017-08-18T09:37:04.544Z,101263.26
2017-08-18T09:39:33.003Z,101259.83
2017-08-18T09:42:01.518Z,101252.68
2017-08-18T09:44:29.989Z,101257.53
2017-08-18T09:46:58.424Z,101260.23
2017-08-18T09:49:45.477Z,101254.47
2017-08-18T09:52:30.655Z,101249.52
2017-08-18T09:58:22.161Z,101237.47
2017-08-18T10:00:51.395Z,101230.88
2017-08-18T10:03:19.871Z,101230.42
2017-08-18T10:05:48.359Z,101232.80
2017-08-18T10:08:16.849Z,101228.49
2017-08-18T10:10:45.316Z,101226.45
2017-08-18T10:13:13.799Z,101223.84
2017-08-18T10:18:10.050Z,101211.06
2017-08-18T10:20:38.500Z,101204.07
2017-08-18T10:23:07.025Z,101199.41
2017-08-18T10:25:35.511Z,101187.52
2017-08-18T10:28:03.941Z,101190.13
2017-08-18T10:30:32.455Z,101188.51
2017-08-18T10:33:00.875Z,101184.28
2017-08-18T10:35:29.424Z,101176.40
2017-08-18T10:37:57.902Z,101175.06
2017-08-18T10:40:26.388Z,101178.64
2017-08-18T10:42:54.876Z,101186.59
2017-08-18T10:45:23.360Z,101174.73
2017-08-18T10:47:51.789Z,101168.29
2017-08-18T10:50:20.256Z,101155.20
2017-08-18T10:52:48.700Z,101147.67
2017-08-18T10:55:17.170Z,101140.02
2017-08-18T10:57:45.643Z,101146.81
2017-08-18T11:00:14.072Z,101147.66
2017-08-18T11:02:42.628Z,101160.05
2017-08-18T11:05:11.099Z,101156.89
2017-08-18T11:07:39.707Z,101146.88
2017-08-18T11:10:08.176Z,101164.12
2017-08-18T11:12:36.655Z,101151.63
2017-08-18T11:15:05.072Z,101154.39
2017-08-18T11:17:33.526Z,101162.32
2017-08-18T11:20:02.010Z,101164.47
2017-08-18T11:22:30.459Z,101167.50
2017-08-18T11:24:59.660Z,101159.39
2017-08-18T11:27:28.103Z,101164.00
2017-08-18T11:29:56.648Z,101161.46
2017-08-18T11:32:25.108Z,101158.16
2017-08-18T11:34:53.613Z,101154.61
2017-08-18T11:37:22.097Z,101159.20
2017-08-18T11:39:50.536Z,101157.14
2017-08-18T11:42:19.063Z,101161.08
2017-08-18T11:44:47.536Z,101164.92
2017-08-18T11:47:16.016Z,101157.28
2017-08-18T11:49:44.509Z,101160.25
2017-08-18T11:52:12.928Z,101163.34
2017-08-18T11:54:41.459Z,101166.05
2017-08-18T11:57:09.972Z,101162.13
2017-08-18T11:59:38.488Z,101170.42
2017-08-18T12:02:07.743Z,101170.36
2017-08-18T12:04:36.312Z,101163.34
2017-08-18T12:07:04.791Z,101168.41
2017-08-18T12:09:33.282Z,101168.39
2017-08-18T12:12:01.729Z,101160.70
2017-08-18T12:14:30.188Z,101153.31
2017-08-18T12:16:58.660Z,101153.89
2017-08-18T12:19:27.204Z,101153.55
2017-08-18T12:21:55.690Z,101142.56
2017-08-18T12:24:24.304Z,101143.03
2017-08-18T12:26:52.731Z,101142.94
2017-08-18T12:29:21.174Z,101139.80
2017-08-18T12:31:49.722Z,101137.28
2017-08-18T12:34:18.204Z,101132.73
2017-08-18T12:36:46.673Z,101132.45
2017-08-18T12:39:15.109Z,101124.38
2017-08-18T12:41:43.645Z,101128.56
2017-08-18T12:44:12.084Z,101130.23
2017-08-18T12:46:41.323Z,101121.17
2017-08-18T12:49:09.764Z,101118.20
2017-08-18T12:51:38.989Z,101108.47
2017-08-18T12:54:07.426Z,101102.63
2017-08-18T12:56:35.959Z,101090.47
2017-08-18T12:59:04.452Z,101091.74
2017-08-18T13:01:33.036Z,101085.20
2017-08-18T13:04:01.500Z,101084.59
2017-08-18T13:06:29.999Z,101075.06
2017-08-18T13:08:58.471Z,101072.19
2017-08-18T13:11:26.955Z,101073.89
2017-08-18T13:13:55.440Z,101072.88
2017-08-18T13:16:23.887Z,101078.75
2017-08-18T13:18:53.119Z,101078.14
2017-08-18T13:21:21.616Z,101076.13
2017-08-18T13:23:50.055Z,101060.53
2017-08-18T13:26:19.394Z,101047.20
2017-08-18T13:28:47.844Z,101047.37
2017-08-18T13:31:17.064Z,101050.30
2017-08-18T13:33:45.543Z,101042.88
2017-08-18T13:36:13.995Z,101023.03
2017-08-18T13:38:42.427Z,101020.40
2017-08-18T13:41:11.002Z,101046.77
2017-08-18T13:43:39.471Z,101086.45
2017-08-18T13:46:07.955Z,101084.13
2017-08-18T13:48:36.411Z,101082.30
2017-08-18T13:51:04.919Z,101055.13
2017-08-18T13:53:33.377Z,101068.71
2017-08-18T13:56:01.889Z,101070.38
2017-08-18T13:58:30.380Z,101075.45
2017-08-18T14:00:58.839Z,101064.39
2017-08-18T14:03:27.291Z,101055.48
2017-08-18T14:05:56.529Z,101049.36
2017-08-18T14:08:25.026Z,101049.10
2017-08-18T14:10:53.479Z,101036.20
2017-08-18T14:13:21.961Z,101036.06
2017-08-18T14:15:50.451Z,101024.23
2017-08-18T14:18:18.932Z,101019.30
2017-08-18T14:20:47.369Z,101017.59
2017-08-18T14:23:15.809Z,101013.00
2017-08-18T14:28:49.515Z,101000.17
2017-08-18T14:31:18.009Z,100995.44
2017-08-18T14:33:46.489Z,100987.24
2017-08-18T14:36:14.978Z,100981.63
2017-08-18T14:38:43.454Z,100977.42
2017-08-18T14:41:11.928Z,100973.86
2017-08-18T14:43:40.383Z,100968.22
2017-08-18T14:46:09.603Z,100967.34
2017-08-18T14:48:38.903Z,100963.26
2017-08-18T14:51:07.332Z,100958.17
2017-08-18T14:53:35.772Z,100952.73
2017-08-18T14:56:04.208Z,100945.48
2017-08-18T14:58:32.670Z,100938.75
2017-08-18T15:01:01.110Z,100933.95
2017-08-18T15:03:29.608Z,100927.44
2017-08-18T15:05:58.089Z,100922.94
2017-08-18T15:08:26.567Z,100922.13
2017-08-18T15:10:55.056Z,100926.36
2017-08-18T15:13:23.493Z,100918.34
2017-08-18T15:15:52.703Z,100921.48
2017-08-18T15:18:21.903Z,100910.80
2017-08-18T15:20:51.234Z,100913.34
2017-08-18T15:23:19.712Z,100909.19
2017-08-18T15:25:48.159Z,100907.06
2017-08-18T15:28:17.387Z,100911.58
2017-08-18T15:30:45.870Z,100913.81
2017-08-18T15:33:14.367Z,100908.34
2017-08-18T15:35:42.829Z,100891.52
2017-08-18T15:38:11.305Z,100899.20
2017-08-18T15:40:39.765Z,100891.70
2017-08-18T15:43:09.001Z,100881.89
2017-08-18T15:45:37.469Z,100887.87
2017-08-18T15:48:05.899Z,100890.51
2017-08-18T15:50:34.449Z,100884.05
2017-08-18T15:53:02.929Z,100881.75
2017-08-18T15:55:31.399Z,100882.20
2017-08-18T15:57:59.883Z,100883.88
2017-08-18T16:00:28.341Z,100868.53
2017-08-18T16:02:57.577Z,100863.73
2017-08-18T16:05:26.027Z,100882.00
2017-08-18T16:07:55.257Z,100887.21
2017-08-18T16:10:23.738Z,100887.77
2017-08-18T16:12:52.163Z,100886.86
2017-08-18T16:15:20.702Z,100876.23
2017-08-18T16:17:49.130Z,100876.41
2017-08-18T16:20:17.668Z,100885.77
2017-08-18T16:22:46.142Z,100885.55
2017-08-18T16:25:14.616Z,100891.10
2017-08-18T16:27:43.098Z,100887.91
2017-08-18T16:30:11.571Z,100886.16
2017-08-18T16:32:40.064Z,100886.44
2017-08-18T16:35:08.553Z,100881.14
2017-08-18T16:37:37.021Z,100889.31
2017-08-18T16:40:05.443Z,100892.41
2017-08-18T16:42:34.007Z,100881.13
2017-08-18T16:45:02.471Z,100878.56
2017-08-18T16:47:30.951Z,100871.55
2017-08-18T16:49:59.385Z,100874.86
2017-08-18T16:52:27.931Z,100870.83
2017-08-18T16:54:56.412Z,100869.02
2017-08-18T16:57:24.888Z,100866.27
2017-08-18T16:59:53.412Z,100873.09
2017-08-18T17:02:21.959Z,100870.55
2017-08-18T17:04:50.427Z,100870.42
2017-08-18T17:07:18.867Z,100871.37
2017-08-18T17:09:47.302Z,100867.31
2017-08-18T17:12:15.767Z,100869.59
2017-08-18T17:14:44.260Z,100865.13
2017-08-18T17:17:12.736Z,100864.55
2017-08-18T17:19:41.211Z,100869.26
2017-08-18T17:22:09.655Z,100869.47
2017-08-18T17:24:38.194Z,100863.45
2017-08-18T17:27:06.674Z,100864.10
2017-08-18T17:29:35.153Z,100862.95
2017-08-18T17:32:03.638Z,100871.52
2017-08-18T17:34:32.118Z,100873.59
2017-08-18T17:37:00.587Z,100867.23
2017-08-18T17:39:29.068Z,100859.02
2017-08-18T17:41:57.560Z,100846.14
2017-08-18T17:44:26.031Z,100848.69
2017-08-18T17:46:54.520Z,100843.94
2017-08-18T17:49:22.994Z,100846.35
2017-08-18T17:51:51.415Z,100849.28
2017-08-18T17:54:19.969Z,100850.55
2017-08-18T17:56:48.391Z,100854.53
2017-08-18T17:59:16.924Z,100856.69
2017-08-18T18:01:45.451Z,100865.92
2017-08-18T18:04:14.001Z,100847.83
2017-08-18T18:06:42.485Z,100834.98
2017-08-18T18:09:10.956Z,100830.41
2017-08-18T18:11:39.448Z,100832.56
2017-08-18T18:14:07.914Z,100829.68
2017-08-18T18:16:36.400Z,100841.57
2017-08-18T18:19:04.904Z,100851.29
2017-08-18T18:21:33.337Z,100857.59
2017-08-18T18:24:02.685Z,100856.14
2017-08-18T18:26:31.143Z,100855.72
2017-08-18T18:28:59.636Z,100856.34
2017-08-18T18:31:28.093Z,100863.91
2017-08-18T18:33:56.587Z,100869.32
2017-08-18T18:36:25.035Z,100876.03
2017-08-18T18:38:53.555Z,100873.70
2017-08-18T18:41:22.004Z,100867.50
2017-08-18T18:43:51.235Z,100867.74
2017-08-18T18:46:19.679Z,100860.58
2017-08-18T18:48:48.108Z,100859.22
2017-08-18T18:51:16.561Z,100862.12
2017-08-18T18:53:45.063Z,100857.81
2017-08-18T18:56:13.515Z,100853.87
2017-08-18T18:58:42.727Z,100850.75
2017-08-18T19:01:11.233Z,100856.79
2017-08-18T19:03:39.723Z,100857.03
2017-08-18T19:06:08.302Z,100863.59
2017-08-18T19:08:36.744Z,100861.16
2017-08-18T19:11:05.950Z,100873.38
2017-08-18T19:13:35.171Z,100873.80
2017-08-18T19:16:03.647Z,100865.56
2017-08-18T19:18:32.081Z,100854.79
2017-08-18T19:21:00.616Z,100844.19
2017-08-18T19:23:29.112Z,100823.95
2017-08-18T19:25:57.590Z,100805.63
2017-08-18T19:28:26.069Z,100798.12
2017-08-18T19:30:54.548Z,100806.77
2017-08-18T19:33:22.983Z,100811.55
2017-08-18T19:35:51.510Z,100808.84
2017-08-18T19:38:19.988Z,100806.30
2017-08-18T19:40:48.432Z,100802.61
2017-08-18T19:43:17.676Z,100804.90
2017-08-18T19:45:46.143Z,100801.56
2017-08-18T19:48:14.631Z,100799.45
2017-08-18T19:50:43.047Z,100790.09
2017-08-18T19:53:11.595Z,100776.87
2017-08-18T19:55:40.088Z,100772.33
2017-08-18T19:58:08.552Z,100764.19
2017-08-18T20:00:37.047Z,100760.11
2017-08-18T20:03:05.534Z,100758.20
2017-08-18T20:05:34.005Z,100761.02
2017-08-18T20:08:02.461Z,100766.80
2017-08-18T20:10:31.697Z,100777.94
2017-08-18T20:13:00.178Z,100794.38
2017-08-18T20:15:28.649Z,100801.88
2017-08-18T20:17:57.142Z,100813.33
2017-08-18T20:20:25.620Z,100822.51
2017-08-18T20:22:54.095Z,100826.02
2017-08-18T20:25:22.584Z,100826.09
2017-08-18T20:27:51.065Z,100822.70
2017-08-18T20:30:19.545Z,100824.02
2017-08-18T20:32:47.988Z,100818.35
2017-08-18T20:35:17.233Z,100807.67
2017-08-18T20:37:45.693Z,100790.91
2017-08-18T20:40:14.708Z,100779.00
2017-08-18T20:42:43.189Z,100781.27
2017-08-18T20:45:11.655Z,100790.30
2017-08-18T20:47:40.153Z,100802.17
2017-08-18T20:50:08.635Z,100805.75
2017-08-18T20:52:37.100Z,100805.09
2017-08-18T20:55:05.595Z,100795.19
2017-08-18T20:57:34.034Z,100782.89
2017-08-18T21:00:03.257Z,100784.86
2017-08-18T21:02:31.701Z,100792.15
2017-08-18T21:05:00.138Z,100791.22
2017-08-18T21:07:28.611Z,100801.70
2017-08-18T21:09:57.108Z,100806.56
2017-08-18T21:12:25.535Z,100800.78
2017-08-18T21:14:54.775Z,100807.72
2017-08-18T21:17:23.212Z,100790.19
2017-08-18T21:19:51.745Z,100780.52
2017-08-18T21:22:20.218Z,100785.02
2017-08-18T21:24:48.711Z,100781.55
2017-08-18T21:27:17.152Z,100785.45
2017-08-18T21:29:46.479Z,100793.73
2017-08-18T21:32:14.903Z,100782.25
2017-08-18T21:34:43.448Z,100788.50
2017-08-18T21:37:11.926Z,100786.72
2017-08-18T21:39:40.389Z,100784.99
2017-08-18T21:42:09.621Z,100792.43
2017-08-18T21:44:38.101Z,100791.73
2017-08-18T21:47:06.571Z,100800.63
2017-08-18T21:49:35.066Z,100820.93
2017-08-18T21:52:03.540Z,100831.71
2017-08-18T21:54:31.964Z,100827.20
2017-08-18T21:57:00.422Z,100818.47
2017-08-18T21:59:28.875Z,100815.99
2017-08-18T22:01:57.360Z,100820.27
2017-08-18T22:04:25.839Z,100835.82
2017-08-18T22:06:54.319Z,100828.39
2017-08-18T22:09:22.815Z,100830.16
2017-08-18T22:11:51.277Z,100818.05
2017-08-18T22:14:19.763Z,100820.44
2017-08-18T22:16:48.247Z,100822.41
2017-08-18T22:19:16.732Z,100828.53
2017-08-18T22:21:45.211Z,100834.75
2017-08-18T22:24:13.691Z,100832.06
2017-08-18T22:26:42.189Z,100848.20
2017-08-18T22:29:10.671Z,100837.31
2017-08-18T22:31:39.135Z,100841.48
2017-08-18T22:34:07.623Z,100835.98
2017-08-18T22:36:36.071Z,100844.81
2017-08-18T22:39:05.308Z,100847.94
2017-08-18T22:41:33.764Z,100831.64
2017-08-18T22:44:02.983Z,100822.77
2017-08-18T22:46:31.463Z,100822.41
2017-08-18T22:48:59.960Z,100828.34
2017-08-18T22:51:28.441Z,100831.07
2017-08-18T22:53:56.907Z,100832.70
2017-08-18T22:56:25.388Z,100838.60
2017-08-18T22:58:53.811Z,100844.08
2017-08-18T23:01:22.255Z,100851.88
2017-08-18T23:03:50.742Z,100854.66
2017-08-18T23:06:19.159Z,100846.66
2017-08-18T23:08:47.609Z,100842.48
2017-08-18T23:11:16.089Z,100834.76
2017-08-18T23:13:44.573Z,100820.52
2017-08-18T23:16:12.999Z,100830.86
2017-08-18T23:18:41.461Z,100839.92
2017-08-18T23:21:09.903Z,100836.34
2017-08-18T23:23:38.388Z,100846.25
2017-08-18T23:26:06.825Z,100862.16
2017-08-18T23:28:35.281Z,100859.00
2017-08-18T23:31:03.728Z,100869.66
2017-08-18T23:33:32.169Z,100867.05
2017-08-18T23:36:00.688Z,100856.52
2017-08-18T23:38:29.186Z,100858.53
2017-08-18T23:40:57.646Z,100866.67
2017-08-18T23:43:26.133Z,100869.44
2017-08-18T23:45:54.616Z,100871.20
2017-08-18T23:48:23.119Z,100864.14
2017-08-18T23:50:51.593Z,100856.14
2017-08-18T23:53:20.059Z,100853.08
2017-08-18T23:55:48.512Z,100863.43
2017-08-18T23:58:17.707Z,100861.34
